< < Back
Terminal Aerodrome Forecast


Current Version              Previous Versions:   1  2  3  4  5  6  7  8  9  

Terminal Aerodrome Forecast

720
FTAK31 PAJN 210700 AAA
TAFAHN
TAF AMD
PAHN 210750Z 2108/2206 VRB05KT 4SM BR OVC002
      TEMPO 2108/2112 2SM -DZ BR
     FM211200 30008KT P6SM -RA SCT005 OVC015
     FM211500 30006KT 5SM -RA BR FEW006 BKN015 OVC025
     FM212200 VRB05KT 5SM -RA BR SCT015 OVC025
     FM220200 10009G15KT 6SM -RA BR SCT015 OVC025
      AMD LTD TO CLD VIS AND WIND=

Latest METAR

356
SAUS70 KWBC 210800
MTRAHN
METAR KAHN 210751Z AUTO 00000KT 9SM CLR 17/15 A3001 RMK AO2 SLP154
T01670150


USA.gov is the U.S. government's official web portal to all federal, state and local government web resources and services.